Jandaira, Brazil
Current Conditions -  °F | °C
As of 3:00 PM on Sunday 21 Dec 2014 (Local Time) from SBAR Reporting Station
Scattered Clouds Scattered Clouds  
Wind Chill: 84°   Ceiling: Unl
Heat Index: 90°   Visibility: 6mi
Dew Point: 72°   Wind: 15mph
Humidity: 66%   Direction: 120°ESE
Pressure: 29.91"   Gusts: NA
Location:  11.56°S, 37.78°W
Report Text: SBAR 211800Z 12013KT 9999 SCT018 29/22 Q1013
Loading
Personal Weather Stations






























Interactive Weather Map New forecast layout! Learn more

10-Day Weather Forecast

Advertisements
Track Severe Weather on mobile